PILOTS ONLINE: 532    ATC ONLINE: 112

KHND - Henderson Executive Airport

Location

City Las Vegas
Country  United States
Latitude 35° 58' 22" N
Longitude 115° 8' 2" W
Elevation 2492 ft
Type Small Airport

Runways

17L/35R 5001 ft / 75 ft
17R/35L 6501 ft / 100 ft

Weather

METAR
2014/07/24 16:56
KHND 241656Z 18013KT 10SM CLR 39/M01 A2993 RMK AO2 T03941011 SLP098
TAF
2014/07/24 18:21
TAF KHND 241720Z 2418/2518 20011KT P6SM FEW150 
     FM242000 23012G22KT P6SM SCT150 
     FM250300 20010KT P6SM SCT150 
     FM251000 18010G20KT P6SM BKN150

Outbound flights

Inbound flights